Flight Track Log - Related Links

Times and Time Zones

All times are in EDT time to prevent confusion due to time zone crossing. See the FLG3850 flight status page for this flight to view local times or setup timezone preferences in your user account.

Time Position Orientation Groundspeed Altitude Reporting Facility
EDT Latitude Longitude Course Direction KTS MPH feet Rate Location/Type
Tue 05:46:28 PM 40.5025 -80.2831 257° West 141 162 2,600  Level FAA TRACON SMA TRACON (SMA)
Tue 05:47:07 PM 40.4956 -80.3233 187° South 176 203 3,600 1,575 Climbing FAA TRACON SMA TRACON (SMA)
Tue 05:47:48 PM 40.4578 -80.3292 176° South 229 264 4,700 2,148 Climbing FAA TRACON SMA TRACON (SMA)
Tue 05:48:28 PM 40.4086 -80.3247 175° South 262 302 6,500 2,962 Climbing FAA TRACON SMA TRACON (SMA)
Tue 05:49:07 PM 40.3586 -80.3194 176° South 267 307 8,600 2,700 Climbing FAA TRACON SMA TRACON (SMA)
Tue 05:49:48 PM 40.3094 -80.3144 176° South 280 322 10,100 2,074 Climbing FAA TRACON SMA TRACON (SMA)
Tue 05:50:28 PM 40.2528 -80.3092 176° South 292 336 11,400 1,425 Climbing FAA TRACON SMA TRACON (SMA)
Tue 05:51:08 PM 40.1903 -80.3039 176° South 332 382 12,000 987 Climbing FAA TRACON SMA TRACON (SMA)
Tue 05:51:47 PM 40.1286 -80.2983 172° South 357 411 12,700 1,000 Climbing FAA TRACON SMA TRACON (SMA)
Tue 05:52:26 PM 40.0667 -80.2875 200° South 377 434 13,300 1,030 Climbing Cleveland Center
Tue 05:53:26 PM 39.9689 -80.3339 216° Southwest 372 428 14,400 1,250 Climbing Cleveland Center
Tue 05:54:26 PM 39.8814 -80.4181 215° Southwest 372 428 15,800 1,300 Climbing Cleveland Center
Tue 05:55:26 PM 39.7919 -80.4992 216° Southwest 385 443 17,000 1,100 Climbing Cleveland Center
Tue 05:56:26 PM 39.7025 -80.5831 214° Southwest 396 456 18,000 1,095 Climbing Cleveland Center
Tue 05:57:32 PM 39.5886 -80.6822 215° Southwest 409 471 19,300 1,095 Climbing Indianapolis Center
Tue 05:58:32 PM 39.4947 -80.7667 214° Southwest 414 476 20,300 1,000 Climbing Indianapolis Center
Tue 05:59:32 PM 39.4008 -80.8483 216° Southwest 409 471 21,300 1,050 Climbing Indianapolis Center
Tue 06:00:32 PM 39.3089 -80.9350 214° Southwest 409 471 22,400 1,000 Climbing Indianapolis Center
Tue 06:01:32 PM 39.2169 -81.0161 217° Southwest 409 471 23,300 800 Climbing Indianapolis Center
Tue 06:02:32 PM 39.1269 -81.1050 242° Southwest 409 471 24,000 800 Climbing Indianapolis Center
Tue 06:03:32 PM 39.0772 -81.2272 243° Southwest 388 447 24,900 850 Climbing Indianapolis Center
Tue 06:04:32 PM 39.0294 -81.3489 243° Southwest 388 447 25,700 750 Climbing Indianapolis Center
Tue 06:05:32 PM 38.9817 -81.4706 243° Southwest 388 447 26,400 700 Climbing Indianapolis Center
Tue 06:06:32 PM 38.9339 -81.5922 241° Southwest 388 447 27,100 700 Climbing Indianapolis Center
Tue 06:07:32 PM 38.8836 -81.7108 243° Southwest 383 441 27,800 700 Climbing Indianapolis Center
Tue 06:08:32 PM 38.8372 -81.8267 242° Southwest 378 435 28,500 700 Climbing Indianapolis Center
Tue 06:09:32 PM 38.7889 -81.9453 243° Southwest 373 429 29,200 600 Climbing Indianapolis Center
Tue 06:10:32 PM 38.7425 -82.0606 244° Southwest 373 429 29,700 400 Climbing Indianapolis Center
Tue 06:11:32 PM 38.6981 -82.1761 244° Southwest 373 429 30,000 150 Climbing Indianapolis Center
Tue 06:12:32 PM 38.6514 -82.2967 244° Southwest 373 429 30,000  Level Indianapolis Center
Tue 06:13:32 PM 38.6047 -82.4169 242° Southwest 373 429 30,000  Level Indianapolis Center
Tue 06:14:32 PM 38.5597 -82.5267 244° Southwest 378 435 30,000  Level Indianapolis Center
Tue 06:15:32 PM 38.5108 -82.6519 244° Southwest 384 442 30,000  Level Indianapolis Center
Tue 06:16:32 PM 38.4636 -82.7744 243° Southwest 390 449 30,000  Level Indianapolis Center
Tue 06:17:32 PM 38.4144 -82.8969 244° Southwest 385 443 30,000  Level Indianapolis Center
Tue 06:18:32 PM 38.3692 -83.0167 242° Southwest 385 443 30,000  Level Indianapolis Center
Tue 06:19:32 PM 38.3175 -83.1414 244° Southwest 385 443 30,000  Level Indianapolis Center
Tue 06:20:32 PM 38.2700 -83.2633 244° Southwest 391 450 30,000  Level Indianapolis Center
Tue 06:21:32 PM 38.2222 -83.3853 243° Southwest 391 450 30,000  Level Indianapolis Center
Tue 06:22:32 PM 38.1722 -83.5094 242° Southwest 391 450 30,000  Level Indianapolis Center
Tue 06:23:32 PM 38.1222 -83.6283 244° Southwest 391 450 30,000  Level Indianapolis Center
Tue 06:24:32 PM 38.0739 -83.7522 242° Southwest 391 450 30,000  Level Indianapolis Center
Tue 06:25:32 PM 38.0217 -83.8786 243° Southwest 386 444 30,000  Level Indianapolis Center
Tue 06:26:32 PM 37.9711 -84.0022 243° Southwest 391 450 30,000  Level Indianapolis Center
Tue 06:27:32 PM 37.9206 -84.1283 241° Southwest 391 450 30,000  Level Indianapolis Center
Tue 06:28:32 PM 37.8656 -84.2517 243° Southwest 391 450 30,000  Level Indianapolis Center
Tue 06:29:32 PM 37.8147 -84.3800 242° Southwest 401 461 30,000  Level Indianapolis Center
Tue 06:30:32 PM 37.7617 -84.5053 242° Southwest 401 461 30,000  Level Indianapolis Center
Tue 06:31:32 PM 37.7083 -84.6308 242° Southwest 401 461 30,000  Level Indianapolis Center
Tue 06:32:32 PM 37.6550 -84.7558 241° Southwest 406 467 30,000  Level Indianapolis Center
Tue 06:33:32 PM 37.6017 -84.8783 242° Southwest 401 461 30,000  Level Indianapolis Center
Tue 06:34:32 PM 37.5500 -85.0031 242° Southwest 408 470 30,000  Level Indianapolis Center
Tue 06:35:32 PM 37.4986 -85.1225 242° Southwest 402 463 30,000  Level Indianapolis Center
Tue 06:37:58 PM 37.3731 -85.4192 243° Southwest 402 463 30,000  Level Memphis Center
Tue 06:38:58 PM 37.3219 -85.5450 242° Southwest 402 463 30,000  Level Memphis Center
Tue 06:39:58 PM 37.2703 -85.6656 242° Southwest 402 463 30,000  Level Memphis Center
Tue 06:40:58 PM 37.2167 -85.7936 241° Southwest 402 463 30,000  Level Memphis Center
Tue 06:41:58 PM 37.1628 -85.9164 241° Southwest 408 470 30,000  Level Memphis Center
Tue 06:42:58 PM 37.1089 -86.0392 241° Southwest 413 475 30,000  Level Memphis Center
Tue 06:43:58 PM 37.0547 -86.1617 241° Southwest 408 470 30,000  Level Memphis Center
Tue 06:44:58 PM 36.9947 -86.2997 241° Southwest 414 476 30,000  Level Memphis Center
Tue 06:45:58 PM 36.9403 -86.4244 240° Southwest 409 471 30,000  Level Memphis Center
Tue 06:46:58 PM 36.8858 -86.5439 241° Southwest 409 471 30,000  Level Memphis Center
Tue 06:47:58 PM 36.8311 -86.6683 241° Southwest 409 471 30,000  Level Memphis Center
Tue 06:48:58 PM 36.7764 -86.7925 241° Southwest 409 471 30,000 -300 Level Memphis Center
Tue 06:49:58 PM 36.7194 -86.9194 242° Southwest 409 471 29,400 -800 Descending Memphis Center
Tue 06:50:58 PM 36.6667 -87.0433 241° Southwest 414 476 28,400 -700 Descending Memphis Center
Tue 06:51:58 PM 36.6117 -87.1669 239° Southwest 414 476 28,000 -200 Descending Memphis Center
Tue 06:52:58 PM 36.5561 -87.2828 241° Southwest 409 471 28,000  Level Memphis Center
Tue 06:53:58 PM 36.5028 -87.4011 241° Southwest 409 471 28,000  Level Memphis Center
Tue 06:54:58 PM 36.4492 -87.5192 241° Southwest 404 465 28,000  Level Memphis Center
Tue 06:55:58 PM 36.3956 -87.6369 240° Southwest 404 465 28,000  Level Memphis Center
Tue 06:56:58 PM 36.3417 -87.7547 240° Southwest 404 465 28,000  Level Memphis Center
Tue 06:57:58 PM 36.2878 -87.8722 240° Southwest 404 465 28,000  Level Memphis Center
Tue 06:58:58 PM 36.2339 -87.9872 241° Southwest 404 465 28,000  Level Memphis Center
Tue 06:59:58 PM 36.1797 -88.1069 240° Southwest 404 465 28,000  Level Memphis Center
Tue 07:00:58 PM 36.1275 -88.2189 240° Southwest 397 457 28,000  Level Memphis Center
Tue 07:01:58 PM 36.0733 -88.3333 242° Southwest 397 457 28,000 -550 Level Memphis Center
Tue 07:02:58 PM 36.0208 -88.4528 239° Southwest 397 457 26,900 -1,650 Descending Memphis Center
Tue 07:03:58 PM 35.9622 -88.5747 240° Southwest 409 471 24,700 -2,200 Descending Memphis Center
Tue 07:04:58 PM 35.9075 -88.6936 240° Southwest 409 471 22,500 -2,200 Descending Memphis Center
Tue 07:05:58 PM 35.8528 -88.8100 240° Southwest 409 471 20,300 -2,200 Descending Memphis Center
Tue 07:06:58 PM 35.8000 -88.9236 239° Southwest 404 465 18,100 -2,100 Descending Memphis Center
Tue 07:07:58 PM 35.7489 -89.0269 231° Southwest 382 440 16,100 -2,000 Descending Memphis Center
Tue 07:08:58 PM 35.6853 -89.1250 228° Southwest 372 428 14,100 -1,860 Descending Memphis Center
Tue 07:10:07 PM 35.6164 -89.2183 227° Southwest 354 407 12,100 -1,872 Descending FAA TRACON SMA TRACON (SMA)
Tue 07:10:47 PM 35.5683 -89.2822 226° Southwest 336 387 10,700 -1,500 Descending FAA TRACON SMA TRACON (SMA)
Tue 07:11:27 PM 35.5344 -89.3250 226° Southwest 327 376 10,100 -450 Descending FAA TRACON SMA TRACON (SMA)
Tue 07:12:07 PM 35.4856 -89.3875 226° Southwest 330 380 10,100  Level FAA TRACON SMA TRACON (SMA)
Tue 07:12:47 PM 35.4500 -89.4331 226° Southwest 335 386 10,100  Level FAA TRACON SMA TRACON (SMA)
Tue 07:13:27 PM 35.3994 -89.4969 227° Southwest 338 389 10,100 -85 Level FAA TRACON SMA TRACON (SMA)
Tue 07:13:58 PM 35.3656 -89.5422 226° Southwest 332 382 10,000 -66 Descending Memphis Center
Tue 07:14:58 PM 35.2992 -89.6269 225° Southwest 337 388 10,000 55 Level Memphis Center
Tue 07:15:47 PM 35.2414 -89.6975 227° Southwest 338 389 10,100 -202 Climbing FAA TRACON SMA TRACON (SMA)
Tue 07:16:27 PM 35.2075 -89.7414 225° Southwest 282 325 9,700 -1,500 Descending FAA TRACON SMA TRACON (SMA)
Tue 07:17:07 PM 35.1708 -89.7864 226° Southwest 275 316 8,100 -1,200 Descending FAA TRACON SMA TRACON (SMA)
Tue 07:17:47 PM 35.1347 -89.8328 226° Southwest 273 314 8,100 -75 Level FAA TRACON SMA TRACON (SMA)
Tue 07:18:27 PM 35.1044 -89.8717 190° South 261 300 8,000 -1,125 Descending FAA TRACON SMA TRACON (SMA)
Tue 07:19:07 PM 35.0608 -89.8814 173° South 243 280 6,600 -2,025 Descending FAA TRACON SMA TRACON (SMA)
Tue 07:19:47 PM 35.0192 -89.8756 174° South 240 276 5,300 -2,025 Descending FAA TRACON SMA TRACON (SMA)
Tue 07:20:27 PM 34.9728 -89.8694 174° South 240 276 3,900 -1,875 Descending FAA TRACON SMA TRACON (SMA)
Tue 07:21:07 PM 34.9331 -89.8644 190° South 231 266 2,800 -1,350 Descending FAA TRACON SMA TRACON (SMA)
Tue 07:21:47 PM 34.8925 -89.8728 264° West 220 253 2,100 -532 Descending FAA TRACON SMA TRACON (SMA)
Tue 07:22:26 PM 34.8881 -89.9203 323° Northwest 209 241 2,100  Level FAA TRACON SMA TRACON (SMA)
Tue 07:23:07 PM 34.9144 -89.9447 335° Northwest 199 229 2,100 -75 Level FAA TRACON SMA TRACON (SMA)
Tue 07:23:46 PM 34.9439 -89.9614 345° North 169 194 2,000 -450 Descending FAA TRACON SMA TRACON (SMA)
Tue 07:24:27 PM 34.9708 -89.9700 356° North 145 167 1,500 -675 Descending FAA TRACON SMA TRACON (SMA)
Tue 07:25:06 PM 34.9942 -89.9719 359° North 137 158 1,100 -675 Descending FAA TRACON SMA TRACON (SMA)
Tue 07:25:47 PM 35.0194 -89.9722 359° North 134 154 600 -732 Descending FAA TRACON SMA TRACON (SMA)

Login

Don't have an account? Register now (free) for customized features, flight alerts, and more!